createdAt,value
2023-05-08T00:00:45.144Z,100682.63
2023-05-08T00:03:47.536Z,100687.72
2023-05-08T00:06:51.496Z,100686.88
2023-05-08T00:09:54.154Z,100689.84
2023-05-08T00:12:56.899Z,100682.28
2023-05-08T00:15:59.122Z,100676.06
2023-05-08T00:19:01.252Z,100677.38
2023-05-08T00:22:03.476Z,100686.59
2023-05-08T00:25:06.360Z,100691.44
2023-05-08T00:28:11.636Z,100686.00
2023-05-08T00:31:14.603Z,100677.34
2023-05-08T00:34:16.849Z,100675.66
2023-05-08T00:37:19.196Z,100682.63
2023-05-08T00:40:21.475Z,100693.47
2023-05-08T00:43:26.547Z,100681.50
2023-05-08T00:46:28.886Z,100679.09
2023-05-08T00:49:31.383Z,100675.91
2023-05-08T00:52:34.017Z,100682.66
2023-05-08T00:55:36.271Z,100689.97
2023-05-08T00:58:38.665Z,100673.41
2023-05-08T01:01:41.156Z,100683.69
2023-05-08T01:04:46.800Z,100689.06
2023-05-08T01:07:49.136Z,100697.16
2023-05-08T01:11:17.338Z,100702.81
2023-05-08T01:14:37.548Z,100701.13
2023-05-08T01:18:27.810Z,100708.19
2023-05-08T01:21:29.972Z,100715.94
2023-05-08T01:24:54.847Z,100716.97
2023-05-08T01:28:02.796Z,100724.78
2023-05-08T01:31:35.826Z,100719.88
2023-05-08T01:35:01.070Z,100733.94
2023-05-08T01:38:09.864Z,100730.91
2023-05-08T01:41:27.339Z,100720.94
2023-05-08T01:44:35.304Z,100732.28
2023-05-08T01:47:38.537Z,100733.94
2023-05-08T01:50:45.635Z,100742.81
2023-05-08T01:53:56.523Z,100738.50
2023-05-08T01:56:59.611Z,100733.56
2023-05-08T02:00:03.860Z,100742.78
2023-05-08T02:03:14.838Z,100733.28
2023-05-08T02:06:20.438Z,100743.03
2023-05-08T02:09:24.183Z,100749.22
2023-05-08T02:12:26.621Z,100745.72
2023-05-08T02:15:29.528Z,100752.44
2023-05-08T02:18:32.098Z,100751.28
2023-05-08T02:21:35.714Z,100754.03
2023-05-08T02:24:38.432Z,100750.00
2023-05-08T02:27:45.786Z,100752.13
2023-05-08T02:30:49.210Z,100746.66
2023-05-08T02:33:52.721Z,100742.34
2023-05-08T02:36:55.003Z,100755.25
2023-05-08T02:39:58.581Z,100756.13
2023-05-08T02:43:00.938Z,100751.00
2023-05-08T02:46:09.226Z,100755.06
2023-05-08T02:49:54.083Z,100748.78
2023-05-08T02:53:05.330Z,100763.59
2023-05-08T02:56:16.754Z,100755.97
2023-05-08T02:59:46.159Z,100759.50
2023-05-08T03:02:59.868Z,100755.97
2023-05-08T03:06:04.004Z,100764.34
2023-05-08T03:09:07.002Z,100762.47
2023-05-08T03:12:15.379Z,100764.34
2023-05-08T03:15:23.965Z,100761.94
2023-05-08T03:18:34.223Z,100748.41
2023-05-08T03:21:37.535Z,100759.19
2023-05-08T03:24:40.490Z,100753.81
2023-05-08T03:27:44.241Z,100759.75
2023-05-08T03:30:47.697Z,100762.47
2023-05-08T03:33:54.365Z,100766.84
2023-05-08T03:36:56.979Z,100770.28
2023-05-08T03:40:01.286Z,100770.91
2023-05-08T03:43:06.432Z,100770.69
2023-05-08T03:46:09.894Z,100766.84
2023-05-08T03:49:12.673Z,100768.16
2023-05-08T03:52:16.368Z,100776.19
2023-05-08T03:55:18.589Z,100781.38
2023-05-08T03:58:32.008Z,100775.69
2023-05-08T04:01:46.528Z,100781.59
2023-05-08T04:04:55.886Z,100768.97
2023-05-08T04:08:09.949Z,100778.44
2023-05-08T04:11:18.430Z,100786.78
2023-05-08T04:14:25.074Z,100787.66
2023-05-08T04:17:43.827Z,100791.25
2023-05-08T04:20:48.317Z,100792.94
2023-05-08T04:23:56.421Z,100807.50
2023-05-08T04:26:59.441Z,100804.97
2023-05-08T04:30:01.921Z,100809.63
2023-05-08T04:33:06.264Z,100813.88
2023-05-08T04:36:12.933Z,100817.19
2023-05-08T04:39:16.323Z,100826.69
2023-05-08T04:42:18.933Z,100819.41
2023-05-08T04:45:21.314Z,100825.41
2023-05-08T04:48:24.871Z,100826.72
2023-05-08T04:51:27.236Z,100841.16
2023-05-08T04:54:29.884Z,100841.94
2023-05-08T04:57:32.318Z,100843.28
2023-05-08T05:00:34.955Z,100852.38
2023-05-08T05:03:37.378Z,100840.91
2023-05-08T05:06:40.872Z,100841.72
2023-05-08T05:09:43.106Z,100859.78
2023-05-08T05:12:45.421Z,100856.59
2023-05-08T05:15:47.988Z,100854.22
2023-05-08T05:18:50.949Z,100852.38
2023-05-08T05:21:53.126Z,100864.88
2023-05-08T05:24:55.462Z,100866.56
2023-05-08T05:27:57.819Z,100872.44
2023-05-08T05:31:00.472Z,100868.13
2023-05-08T05:34:02.997Z,100871.44
2023-05-08T05:37:05.559Z,100874.13
2023-05-08T05:40:08.777Z,100876.28
2023-05-08T05:43:12.864Z,100873.63
2023-05-08T05:46:15.267Z,100863.97
2023-05-08T05:49:20.568Z,100880.47
2023-05-08T05:52:22.832Z,100869.78
2023-05-08T05:55:25.073Z,100880.59
2023-05-08T05:58:28.593Z,100884.94
2023-05-08T06:01:31.348Z,100883.63
2023-05-08T06:04:33.697Z,100892.34
2023-05-08T06:07:36.155Z,100882.13
2023-05-08T06:10:39.387Z,100882.63
2023-05-08T06:13:41.693Z,100877.53
2023-05-08T06:16:45.055Z,100879.69
2023-05-08T06:19:54.181Z,100879.56
2023-05-08T06:22:56.368Z,100877.16
2023-05-08T06:25:58.691Z,100882.00
2023-05-08T06:29:01.333Z,100883.19
2023-05-08T06:32:03.645Z,100879.78
2023-05-08T06:35:06.393Z,100888.19
2023-05-08T06:38:08.526Z,100881.44
2023-05-08T06:41:10.660Z,100893.13
2023-05-08T06:44:12.824Z,100900.22
2023-05-08T06:47:18.633Z,100884.09
2023-05-08T06:50:20.931Z,100899.28
2023-05-08T06:53:23.411Z,100903.09
2023-05-08T06:56:26.552Z,100901.59
2023-05-08T06:59:28.775Z,100901.41
2023-05-08T07:02:31.014Z,100908.75
2023-05-08T07:05:33.148Z,100903.75
2023-05-08T07:08:35.390Z,100895.94
2023-05-08T07:11:37.615Z,100899.78
2023-05-08T07:14:39.798Z,100912.09
2023-05-08T07:17:42.488Z,100901.09
2023-05-08T07:20:44.692Z,100895.03
2023-05-08T07:23:47.976Z,100900.25
2023-05-08T07:26:50.168Z,100900.84
2023-05-08T07:29:52.385Z,100905.75
2023-05-08T07:32:54.634Z,100903.63
2023-05-08T07:35:56.785Z,100900.66
2023-05-08T07:38:59.001Z,100895.78
2023-05-08T07:42:01.598Z,100896.31
2023-05-08T07:45:04.106Z,100893.22
2023-05-08T07:48:07.567Z,100899.78
2023-05-08T07:51:11.258Z,100905.91
2023-05-08T07:54:13.477Z,100905.09
2023-05-08T07:57:16.917Z,100891.06
2023-05-08T08:00:19.181Z,100893.06
2023-05-08T08:03:21.409Z,100892.25
2023-05-08T08:06:23.673Z,100885.22
2023-05-08T08:09:25.876Z,100892.00
2023-05-08T08:12:28.795Z,100902.31
2023-05-08T08:15:31.271Z,100905.59
2023-05-08T08:18:36.708Z,100894.59
2023-05-08T08:21:43.618Z,100888.63
2023-05-08T08:24:45.811Z,100887.59
2023-05-08T08:27:47.910Z,100886.25
2023-05-08T08:30:50.959Z,100885.69
2023-05-08T08:33:53.892Z,100886.56
2023-05-08T08:36:56.078Z,100883.31
2023-05-08T08:39:58.238Z,100891.50
2023-05-08T08:43:00.533Z,100880.69
2023-05-08T08:46:13.321Z,100866.84
2023-05-08T08:49:18.671Z,100887.38
2023-05-08T08:52:41.399Z,100881.72
2023-05-08T08:55:47.183Z,100884.47
2023-05-08T08:58:56.795Z,100878.25
2023-05-08T09:02:01.974Z,100881.53
2023-05-08T09:05:04.586Z,100879.63
2023-05-08T09:08:07.294Z,100877.75
2023-05-08T09:11:09.495Z,100873.13
2023-05-08T09:14:11.652Z,100886.97
2023-05-08T09:17:14.431Z,100878.84
2023-05-08T09:20:16.644Z,100876.69
2023-05-08T09:23:19.771Z,100870.97
2023-05-08T09:26:33.784Z,100874.22
2023-05-08T09:29:35.967Z,100875.03
2023-05-08T09:32:40.264Z,100867.16
2023-05-08T09:35:43.110Z,100875.03
2023-05-08T09:38:45.521Z,100867.19
2023-05-08T09:42:09.036Z,100867.72
2023-05-08T09:45:11.764Z,100871.00
2023-05-08T09:48:14.198Z,100880.75
2023-05-08T09:51:16.809Z,100863.69
2023-05-08T09:54:19.152Z,100860.69
2023-05-08T09:57:21.508Z,100861.22
2023-05-08T10:00:27.846Z,100861.22
2023-05-08T10:03:49.529Z,100855.25
2023-05-08T10:06:58.786Z,100859.84
2023-05-08T10:10:02.902Z,100850.59
2023-05-08T10:13:05.304Z,100858.19
2023-05-08T10:16:11.239Z,100842.97
2023-05-08T10:19:18.137Z,100842.44
2023-05-08T10:22:21.847Z,100837.53
2023-05-08T10:25:24.876Z,100831.53
2023-05-08T10:28:33.564Z,100838.84
2023-05-08T10:31:36.635Z,100826.06
2023-05-08T10:34:40.872Z,100815.19
2023-05-08T10:37:44.107Z,100817.59
2023-05-08T10:40:47.074Z,100817.03
2023-05-08T10:43:50.529Z,100805.91
2023-05-08T10:47:23.449Z,100807.22
2023-05-08T10:50:46.050Z,100813.41
2023-05-08T10:53:55.942Z,100816.63
2023-05-08T10:57:11.861Z,100810.31
2023-05-08T11:03:33.229Z,100796.66
2023-05-08T11:06:49.266Z,100799.88
2023-05-08T11:09:51.840Z,100801.75
2023-05-08T11:12:54.448Z,100799.22
2023-05-08T11:15:56.904Z,100802.72
2023-05-08T11:19:18.796Z,100804.31
2023-05-08T11:22:23.667Z,100799.94
2023-05-08T11:25:43.344Z,100796.88
2023-05-08T11:28:54.654Z,100802.28
2023-05-08T11:31:57.278Z,100808.50
2023-05-08T11:34:59.574Z,100804.59
2023-05-08T11:38:21.679Z,100804.56
2023-05-08T11:41:24.435Z,100800.97
2023-05-08T11:44:28.321Z,100800.97
2023-05-08T11:47:41.386Z,100792.78
2023-05-08T11:50:44.253Z,100796.31
2023-05-08T11:53:46.978Z,100795.13
2023-05-08T11:56:50.790Z,100803.28
2023-05-08T11:59:53.041Z,100808.13
2023-05-08T12:02:55.287Z,100794.69
2023-05-08T12:05:58.752Z,100787.03
2023-05-08T12:09:01.765Z,100800.06
2023-05-08T12:12:04.140Z,100802.19
2023-05-08T12:15:14.678Z,100793.81
2023-05-08T12:18:17.430Z,100792.06
2023-05-08T12:21:21.253Z,100793.63
2023-05-08T12:24:24.317Z,100796.88
2023-05-08T12:27:26.901Z,100798.41
2023-05-08T12:30:29.200Z,100791.59
2023-05-08T12:33:31.587Z,100787.44
2023-05-08T12:36:37.541Z,100787.91
2023-05-08T12:39:44.412Z,100779.44
2023-05-08T12:42:49.357Z,100791.59
2023-05-08T12:45:52.709Z,100785.84
2023-05-08T12:49:07.213Z,100788.97
2023-05-08T12:52:13.573Z,100785.94
2023-05-08T12:55:26.983Z,100791.59
2023-05-08T12:58:31.451Z,100793.91
2023-05-08T13:01:33.694Z,100793.34
2023-05-08T13:04:39.084Z,100795.69
2023-05-08T13:07:41.434Z,100799.44
2023-05-08T13:10:46.296Z,100788.47
2023-05-08T13:13:48.506Z,100787.56
2023-05-08T13:16:52.097Z,100786.38
2023-05-08T13:19:54.463Z,100793.06
2023-05-08T13:22:56.632Z,100789.75
2023-05-08T13:25:58.858Z,100797.84
2023-05-08T13:29:01.063Z,100789.09
2023-05-08T13:32:03.330Z,100796.44
2023-05-08T13:35:06.014Z,100785.13
2023-05-08T13:38:08.284Z,100795.16
2023-05-08T13:41:10.608Z,100798.41
2023-05-08T13:44:12.760Z,100788.84
2023-05-08T13:47:14.927Z,100785.34
2023-05-08T13:50:21.835Z,100791.91
2023-05-08T13:53:24.141Z,100792.63
2023-05-08T13:56:26.356Z,100779.91
2023-05-08T13:59:28.556Z,100787.00
2023-05-08T14:02:30.854Z,100789.84
2023-05-08T14:05:34.342Z,100793.47
2023-05-08T14:08:44.663Z,100789.03
2023-05-08T14:11:48.112Z,100787.50
2023-05-08T14:14:50.347Z,100780.81
2023-05-08T14:17:52.516Z,100789.97
2023-05-08T14:20:57.112Z,100788.56
2023-05-08T14:23:59.963Z,100781.97
2023-05-08T14:27:05.890Z,100791.75
2023-05-08T14:30:08.740Z,100790.66
2023-05-08T14:33:10.963Z,100800.59
2023-05-08T14:36:13.174Z,100791.56
2023-05-08T14:39:15.306Z,100799.06
2023-05-08T14:42:23.332Z,100787.34
2023-05-08T14:45:25.893Z,100796.38
2023-05-08T14:48:28.076Z,100797.00
2023-05-08T14:51:31.217Z,100796.28
2023-05-08T14:54:33.697Z,100789.19
2023-05-08T14:57:36.310Z,100785.47
2023-05-08T15:00:39.273Z,100791.53
2023-05-08T15:03:41.656Z,100795.69
2023-05-08T15:06:43.883Z,100790.22
2023-05-08T15:09:46.231Z,100801.16
2023-05-08T15:12:48.431Z,100785.38
2023-05-08T15:15:51.081Z,100786.59
2023-05-08T15:18:53.405Z,100795.81
2023-05-08T15:21:55.530Z,100799.06
2023-05-08T15:25:02.366Z,100800.97
2023-05-08T15:28:04.673Z,100794.28
2023-05-08T15:31:06.870Z,100795.38
2023-05-08T15:34:09.104Z,100796.38
2023-05-08T15:37:11.334Z,100782.16
2023-05-08T15:40:13.634Z,100800.34
2023-05-08T15:43:15.912Z,100790.34
2023-05-08T15:46:18.169Z,100793.59
2023-05-08T15:49:25.730Z,100788.84
2023-05-08T15:52:28.002Z,100797.91
2023-05-08T15:55:30.162Z,100794.69
2023-05-08T15:58:32.436Z,100806.13
2023-05-08T16:01:34.744Z,100800.28
2023-05-08T16:04:36.934Z,100802.56
2023-05-08T16:07:41.361Z,100804.03
2023-05-08T16:10:43.630Z,100806.75
2023-05-08T16:13:45.950Z,100813.94
2023-05-08T16:16:48.083Z,100814.53
2023-05-08T16:19:50.274Z,100809.28
2023-05-08T16:22:56.011Z,100816.66
2023-05-08T16:25:58.305Z,100811.69
2023-05-08T16:29:00.414Z,100818.19
2023-05-08T16:32:02.645Z,100826.53
2023-05-08T16:35:05.267Z,100830.78
2023-05-08T16:38:07.463Z,100833.00
2023-05-08T16:41:10.205Z,100827.31
2023-05-08T16:44:12.697Z,100824.28
2023-05-08T16:47:14.982Z,100834.19
2023-05-08T16:50:17.175Z,100846.84
2023-05-08T16:53:19.375Z,100838.03
2023-05-08T16:56:22.574Z,100858.25
2023-05-08T16:59:24.830Z,100857.91
2023-05-08T17:02:27.181Z,100859.31
2023-05-08T17:05:29.410Z,100875.56
2023-05-08T17:08:31.586Z,100877.00
2023-05-08T17:11:33.923Z,100885.13
2023-05-08T17:14:37.044Z,100894.94
2023-05-08T17:17:39.222Z,100900.69
2023-05-08T17:20:42.386Z,100901.44
2023-05-08T17:23:45.649Z,100909.56
2023-05-08T17:26:48.634Z,100917.13
2023-05-08T17:29:50.860Z,100915.72
2023-05-08T17:32:53.634Z,100923.78
2023-05-08T17:35:55.795Z,100929.69
2023-05-08T17:38:57.990Z,100936.38
2023-05-08T17:42:00.156Z,100947.94
2023-05-08T17:45:04.840Z,100952.63
2023-05-08T17:48:07.192Z,100963.03
2023-05-08T17:51:12.368Z,100962.56
2023-05-08T17:54:14.705Z,100981.91
2023-05-08T17:57:16.880Z,100984.34
2023-05-08T18:00:19.248Z,100981.09
2023-05-08T18:03:21.470Z,100984.13
2023-05-08T18:06:23.791Z,100987.94
2023-05-08T18:09:25.924Z,100995.50
2023-05-08T18:12:28.430Z,101001.47
2023-05-08T18:15:30.583Z,101000.09
2023-05-08T18:18:32.796Z,101007.66
2023-05-08T18:21:34.973Z,101013.88
2023-05-08T18:24:37.120Z,101015.47
2023-05-08T18:27:40.040Z,101035.25
2023-05-08T18:30:42.148Z,101035.19
2023-05-08T18:33:44.340Z,101045.44
2023-05-08T18:36:46.476Z,101041.06
2023-05-08T18:39:48.788Z,101050.00
2023-05-08T18:42:51.020Z,101054.78
2023-05-08T18:45:53.281Z,101056.34
2023-05-08T18:48:55.776Z,101066.31
2023-05-08T18:51:57.921Z,101062.47
2023-05-08T18:55:00.128Z,101074.06
2023-05-08T18:58:02.316Z,101074.25
2023-05-08T19:01:06.210Z,101077.19
2023-05-08T19:04:08.502Z,101079.84
2023-05-08T19:07:10.761Z,101089.84
2023-05-08T19:10:13.430Z,101091.94
2023-05-08T19:13:15.997Z,101093.84
2023-05-08T19:16:18.212Z,101098.66
2023-05-08T19:19:20.465Z,101104.03
2023-05-08T19:22:22.655Z,101098.31
2023-05-08T19:25:24.937Z,101105.03
2023-05-08T19:28:27.095Z,101109.28
2023-05-08T19:31:29.270Z,101106.00
2023-05-08T19:34:32.312Z,101103.22
2023-05-08T19:37:35.095Z,101102.16
2023-05-08T19:40:48.393Z,101099.91
2023-05-08T19:43:58.382Z,101117.44
2023-05-08T19:47:03.072Z,101107.63
2023-05-08T19:50:07.352Z,101106.03
2023-05-08T19:53:09.482Z,101117.00
2023-05-08T19:56:11.724Z,101113.44
2023-05-08T19:59:13.932Z,101097.63
2023-05-08T20:02:16.136Z,101094.66
2023-05-08T20:05:22.986Z,101103.28
2023-05-08T20:08:25.669Z,101107.59
2023-05-08T20:11:27.853Z,101114.31
2023-05-08T20:14:29.995Z,101110.75
2023-05-08T20:17:32.303Z,101117.91
2023-05-08T20:20:37.451Z,101113.56
2023-05-08T20:23:41.094Z,101106.84
2023-05-08T20:26:43.326Z,101111.13
2023-05-08T20:29:46.724Z,101109.97
2023-05-08T20:32:49.015Z,101111.53
2023-05-08T20:35:52.309Z,101112.13
2023-05-08T20:38:54.495Z,101114.03
2023-05-08T20:41:56.664Z,101112.28
2023-05-08T20:44:58.826Z,101113.34
2023-05-08T20:48:01.392Z,101103.59
2023-05-08T20:51:03.705Z,101111.16
2023-05-08T20:54:05.918Z,101115.72
2023-05-08T20:57:08.292Z,101110.06
2023-05-08T21:00:10.898Z,101117.69
2023-05-08T21:03:13.124Z,101105.47
2023-05-08T21:06:15.296Z,101111.16
2023-05-08T21:09:17.495Z,101110.16
2023-05-08T21:12:19.675Z,101094.16
2023-05-08T21:15:21.923Z,101106.59
2023-05-08T21:18:24.136Z,101109.13
2023-05-08T21:21:26.303Z,101113.97
2023-05-08T21:24:28.448Z,101103.91
2023-05-08T21:27:30.628Z,101102.47
2023-05-08T21:30:32.749Z,101097.94
2023-05-08T21:33:34.972Z,101103.84
2023-05-08T21:36:37.189Z,101104.91
2023-05-08T21:39:40.794Z,101099.03
2023-05-08T21:42:43.000Z,101105.00
2023-05-08T21:45:45.202Z,101094.09
2023-05-08T21:48:47.668Z,101106.03
2023-05-08T21:51:49.888Z,101094.94
2023-05-08T21:54:52.894Z,101094.28
2023-05-08T21:57:55.086Z,101092.41
2023-05-08T22:00:58.639Z,101094.53
2023-05-08T22:04:01.327Z,101091.16
2023-05-08T22:07:03.561Z,101087.56
2023-05-08T22:10:06.582Z,101076.72
2023-05-08T22:13:08.910Z,101093.69
2023-05-08T22:16:11.127Z,101086.66
2023-05-08T22:19:13.413Z,101092.06
2023-05-08T22:22:15.560Z,101087.97
2023-05-08T22:25:17.834Z,101077.78
2023-05-08T22:28:20.124Z,101086.03
2023-05-08T22:31:22.269Z,101077.78
2023-05-08T22:34:24.486Z,101064.56
2023-05-08T22:37:26.605Z,101068.34
2023-05-08T22:40:28.786Z,101063.41
2023-05-08T22:43:30.915Z,101071.81
2023-05-08T22:46:34.725Z,101072.53
2023-05-08T22:49:39.207Z,101079.31
2023-05-08T22:52:41.586Z,101070.66
2023-05-08T22:55:43.827Z,101066.44
2023-05-08T22:58:46.001Z,101075.56
2023-05-08T23:01:48.165Z,101076.72
2023-05-08T23:04:50.418Z,101078.19
2023-05-08T23:07:52.669Z,101077.22
2023-05-08T23:10:54.812Z,101069.94
2023-05-08T23:13:57.040Z,101069.13
2023-05-08T23:16:59.236Z,101068.88
2023-05-08T23:20:01.458Z,101064.69
2023-05-08T23:23:03.722Z,101066.72
2023-05-08T23:26:06.246Z,101079.38
2023-05-08T23:29:08.665Z,101062.56
2023-05-08T23:32:10.825Z,101069.63
2023-05-08T23:35:13.339Z,101057.69
2023-05-08T23:38:16.077Z,101061.66
2023-05-08T23:41:18.724Z,101054.78
2023-05-08T23:44:20.961Z,101061.50
2023-05-08T23:47:23.967Z,101062.66
2023-05-08T23:50:26.092Z,101056.91
2023-05-08T23:53:28.316Z,101054.13
2023-05-08T23:56:30.939Z,101052.50
2023-05-08T23:59:33.111Z,101041.59
